sensor_id;sensor_type;location;lat;lon;timestamp;temperature;humidity
17307;DHT22;8771;48.048;7.682;2022-11-15T00:00:32;10.50;83.50
17307;DHT22;8771;48.048;7.682;2022-11-15T00:05:35;10.50;83.50
17307;DHT22;8771;48.048;7.682;2022-11-15T00:10:37;10.60;83.50
17307;DHT22;8771;48.048;7.682;2022-11-15T00:15:41;10.60;83.60
17307;DHT22;8771;48.048;7.682;2022-11-15T00:20:44;10.60;83.50
17307;DHT22;8771;48.048;7.682;2022-11-15T00:25:46;10.60;83.60
17307;DHT22;8771;48.048;7.682;2022-11-15T00:30:50;10.60;83.60
17307;DHT22;8771;48.048;7.682;2022-11-15T00:35:52;10.60;83.60
17307;DHT22;8771;48.048;7.682;2022-11-15T00:40:54;10.60;83.70
17307;DHT22;8771;48.048;7.682;2022-11-15T00:45:57;10.60;83.60
17307;DHT22;8771;48.048;7.682;2022-11-15T00:50:59;10.70;83.60
17307;DHT22;8771;48.048;7.682;2022-11-15T00:56:01;10.70;83.50
17307;DHT22;8771;48.048;7.682;2022-11-15T01:01:08;10.70;83.50
17307;DHT22;8771;48.048;7.682;2022-11-15T01:06:10;10.70;83.50
17307;DHT22;8771;48.048;7.682;2022-11-15T01:11:13;10.80;83.50
17307;DHT22;8771;48.048;7.682;2022-11-15T01:16:17;10.80;83.50
17307;DHT22;8771;48.048;7.682;2022-11-15T01:21:20;10.90;83.50
17307;DHT22;8771;48.048;7.682;2022-11-15T01:26:22;11.00;83.40
17307;DHT22;8771;48.048;7.682;2022-11-15T01:31:26;11.00;83.30
17307;DHT22;8771;48.048;7.682;2022-11-15T01:36:28;11.10;83.30
17307;DHT22;8771;48.048;7.682;2022-11-15T01:41:32;11.10;83.20
17307;DHT22;8771;48.048;7.682;2022-11-15T01:46:36;11.10;83.30
17307;DHT22;8771;48.048;7.682;2022-11-15T01:51:39;11.20;83.30
17307;DHT22;8771;48.048;7.682;2022-11-15T01:56:44;11.30;83.30
17307;DHT22;8771;48.048;7.682;2022-11-15T02:01:49;11.30;83.30
17307;DHT22;8771;48.048;7.682;2022-11-15T02:06:52;11.30;83.30
17307;DHT22;8771;48.048;7.682;2022-11-15T02:11:55;11.30;83.30
17307;DHT22;8771;48.048;7.682;2022-11-15T02:17:04;11.30;83.30
17307;DHT22;8771;48.048;7.682;2022-11-15T02:22:20;11.30;83.30
17307;DHT22;8771;48.048;7.682;2022-11-15T02:27:38;11.30;83.40
17307;DHT22;8771;48.048;7.682;2022-11-15T02:32:49;11.30;83.50
17307;DHT22;8771;48.048;7.682;2022-11-15T02:37:56;11.20;83.50
17307;DHT22;8771;48.048;7.682;2022-11-15T02:43:04;11.30;83.50
17307;DHT22;8771;48.048;7.682;2022-11-15T02:48:28;11.30;83.50
17307;DHT22;8771;48.048;7.682;2022-11-15T02:53:31;11.30;83.50
17307;DHT22;8771;48.048;7.682;2022-11-15T02:58:58;11.30;83.50
17307;DHT22;8771;48.048;7.682;2022-11-15T03:04:14;11.30;83.50
17307;DHT22;8771;48.048;7.682;2022-11-15T03:09:29;11.30;83.30
17307;DHT22;8771;48.048;7.682;2022-11-15T03:14:37;11.40;83.40
17307;DHT22;8771;48.048;7.682;2022-11-15T03:19:46;11.40;83.40
17307;DHT22;8771;48.048;7.682;2022-11-15T03:24:52;11.40;83.30
17307;DHT22;8771;48.048;7.682;2022-11-15T03:29:59;11.40;83.30
17307;DHT22;8771;48.048;7.682;2022-11-15T03:35:05;11.40;83.40
17307;DHT22;8771;48.048;7.682;2022-11-15T03:40:09;11.40;83.30
17307;DHT22;8771;48.048;7.682;2022-11-15T03:45:15;11.50;83.30
17307;DHT22;8771;48.048;7.682;2022-11-15T03:50:21;11.50;83.30
17307;DHT22;8771;48.048;7.682;2022-11-15T03:55:24;11.50;83.30
17307;DHT22;8771;48.048;7.682;2022-11-15T04:00:26;11.50;83.30
17307;DHT22;8771;48.048;7.682;2022-11-15T04:05:29;11.50;83.20
17307;DHT22;8771;48.048;7.682;2022-11-15T04:10:31;11.50;83.20
17307;DHT22;8771;48.048;7.682;2022-11-15T04:15:33;11.50;83.30
17307;DHT22;8771;48.048;7.682;2022-11-15T04:20:36;11.50;83.30
17307;DHT22;8771;48.048;7.682;2022-11-15T04:25:58;11.50;83.30
17307;DHT22;8771;48.048;7.682;2022-11-15T04:31:00;11.50;83.30
17307;DHT22;8771;48.048;7.682;2022-11-15T04:36:04;11.60;83.30
17307;DHT22;8771;48.048;7.682;2022-11-15T04:41:24;11.60;83.30
17307;DHT22;8771;48.048;7.682;2022-11-15T04:46:26;11.60;83.30
17307;DHT22;8771;48.048;7.682;2022-11-15T04:51:30;11.60;83.30
17307;DHT22;8771;48.048;7.682;2022-11-15T04:56:32;11.60;83.30
17307;DHT22;8771;48.048;7.682;2022-11-15T05:01:33;11.70;83.30
17307;DHT22;8771;48.048;7.682;2022-11-15T05:06:37;11.60;83.30
17307;DHT22;8771;48.048;7.682;2022-11-15T05:11:39;11.70;83.30
17307;DHT22;8771;48.048;7.682;2022-11-15T05:16:41;11.70;83.30
17307;DHT22;8771;48.048;7.682;2022-11-15T05:21:45;11.70;83.30
17307;DHT22;8771;48.048;7.682;2022-11-15T05:26:48;11.70;83.30
17307;DHT22;8771;48.048;7.682;2022-11-15T05:31:49;11.70;83.20
17307;DHT22;8771;48.048;7.682;2022-11-15T05:36:53;11.80;83.20
17307;DHT22;8771;48.048;7.682;2022-11-15T05:41:59;11.80;83.20
17307;DHT22;8771;48.048;7.682;2022-11-15T05:47:02;11.80;83.20
17307;DHT22;8771;48.048;7.682;2022-11-15T05:52:07;11.90;83.30
17307;DHT22;8771;48.048;7.682;2022-11-15T05:57:11;11.90;83.20
17307;DHT22;8771;48.048;7.682;2022-11-15T06:02:13;11.90;83.20
17307;DHT22;8771;48.048;7.682;2022-11-15T06:07:16;12.00;83.30
17307;DHT22;8771;48.048;7.682;2022-11-15T06:12:18;12.00;83.30
17307;DHT22;8771;48.048;7.682;2022-11-15T06:17:20;12.00;83.20
17307;DHT22;8771;48.048;7.682;2022-11-15T06:22:23;12.00;83.20
17307;DHT22;8771;48.048;7.682;2022-11-15T06:27:25;12.00;83.30
17307;DHT22;8771;48.048;7.682;2022-11-15T06:32:29;12.00;83.30
17307;DHT22;8771;48.048;7.682;2022-11-15T06:37:33;12.00;83.30
17307;DHT22;8771;48.048;7.682;2022-11-15T06:42:35;12.00;83.30
17307;DHT22;8771;48.048;7.682;2022-11-15T06:47:44;12.00;83.30
17307;DHT22;8771;48.048;7.682;2022-11-15T06:52:47;12.00;83.20
17307;DHT22;8771;48.048;7.682;2022-11-15T06:57:50;12.10;83.30
17307;DHT22;8771;48.048;7.682;2022-11-15T07:02:52;12.10;83.30
17307;DHT22;8771;48.048;7.682;2022-11-15T07:07:56;12.10;83.30
17307;DHT22;8771;48.048;7.682;2022-11-15T07:12:59;12.10;83.30
17307;DHT22;8771;48.048;7.682;2022-11-15T07:18:01;12.10;83.30
17307;DHT22;8771;48.048;7.682;2022-11-15T07:23:04;12.10;83.30
17307;DHT22;8771;48.048;7.682;2022-11-15T07:28:06;12.10;83.30
17307;DHT22;8771;48.048;7.682;2022-11-15T07:33:08;12.10;83.30
17307;DHT22;8771;48.048;7.682;2022-11-15T07:38:11;12.10;83.30
17307;DHT22;8771;48.048;7.682;2022-11-15T07:43:15;12.10;83.30
17307;DHT22;8771;48.048;7.682;2022-11-15T07:48:17;12.10;83.30
17307;DHT22;8771;48.048;7.682;2022-11-15T07:53:20;12.10;83.20
17307;DHT22;8771;48.048;7.682;2022-11-15T07:58:22;12.10;83.30
17307;DHT22;8771;48.048;7.682;2022-11-15T08:03:24;12.10;83.40
17307;DHT22;8771;48.048;7.682;2022-11-15T08:08:27;12.20;83.40
17307;DHT22;8771;48.048;7.682;2022-11-15T08:13:29;12.30;83.30
17307;DHT22;8771;48.048;7.682;2022-11-15T08:18:31;12.30;83.20
17307;DHT22;8771;48.048;7.682;2022-11-15T08:23:34;12.30;83.20
17307;DHT22;8771;48.048;7.682;2022-11-15T08:28:37;12.40;83.10
17307;DHT22;8771;48.048;7.682;2022-11-15T08:33:39;12.50;83.10
17307;DHT22;8771;48.048;7.682;2022-11-15T08:38:42;12.50;83.00
17307;DHT22;8771;48.048;7.682;2022-11-15T08:43:44;12.60;83.10
17307;DHT22;8771;48.048;7.682;2022-11-15T08:48:46;12.60;82.90
17307;DHT22;8771;48.048;7.682;2022-11-15T08:53:50;12.70;83.00
17307;DHT22;8771;48.048;7.682;2022-11-15T08:58:51;12.70;83.00
17307;DHT22;8771;48.048;7.682;2022-11-15T09:03:53;12.80;83.00
17307;DHT22;8771;48.048;7.682;2022-11-15T09:08:57;12.80;83.00
17307;DHT22;8771;48.048;7.682;2022-11-15T09:13:59;12.80;83.00
17307;DHT22;8771;48.048;7.682;2022-11-15T09:19:01;12.90;82.90
17307;DHT22;8771;48.048;7.682;2022-11-15T09:24:04;13.00;82.90
17307;DHT22;8771;48.048;7.682;2022-11-15T09:29:07;13.00;83.50
17307;DHT22;8771;48.048;7.682;2022-11-15T09:34:09;13.10;82.70
17307;DHT22;8771;48.048;7.682;2022-11-15T09:39:13;13.10;82.70
17307;DHT22;8771;48.048;7.682;2022-11-15T09:44:40;13.20;82.60
17307;DHT22;8771;48.048;7.682;2022-11-15T09:49:44;13.30;82.70
17307;DHT22;8771;48.048;7.682;2022-11-15T09:54:49;13.30;82.50
17307;DHT22;8771;48.048;7.682;2022-11-15T09:59:59;13.40;82.40
17307;DHT22;8771;48.048;7.682;2022-11-15T10:05:04;13.50;82.50
17307;DHT22;8771;48.048;7.682;2022-11-15T10:10:14;13.50;82.40
17307;DHT22;8771;48.048;7.682;2022-11-15T10:15:20;13.60;82.40
17307;DHT22;8771;48.048;7.682;2022-11-15T10:20:24;13.60;82.40
17307;DHT22;8771;48.048;7.682;2022-11-15T10:25:30;13.70;82.30
17307;DHT22;8771;48.048;7.682;2022-11-15T10:30:34;13.80;82.30
17307;DHT22;8771;48.048;7.682;2022-11-15T10:35:37;13.90;82.30
17307;DHT22;8771;48.048;7.682;2022-11-15T10:40:41;13.90;82.20
17307;DHT22;8771;48.048;7.682;2022-11-15T10:45:46;14.00;82.20
17307;DHT22;8771;48.048;7.682;2022-11-15T10:50:50;14.00;82.20
17307;DHT22;8771;48.048;7.682;2022-11-15T10:55:57;14.10;82.20
17307;DHT22;8771;48.048;7.682;2022-11-15T11:01:25;14.20;81.90
17307;DHT22;8771;48.048;7.682;2022-11-15T11:06:28;14.40;81.90
17307;DHT22;8771;48.048;7.682;2022-11-15T11:11:46;14.40;81.70
17307;DHT22;8771;48.048;7.682;2022-11-15T11:17:06;14.50;82.50
17307;DHT22;8771;48.048;7.682;2022-11-15T11:22:19;14.60;81.80
17307;DHT22;8771;48.048;7.682;2022-11-15T11:27:31;14.60;81.60
17307;DHT22;8771;48.048;7.682;2022-11-15T11:32:46;14.70;81.70
17307;DHT22;8771;48.048;7.682;2022-11-15T11:37:52;14.80;81.70
17307;DHT22;8771;48.048;7.682;2022-11-15T11:43:02;14.80;81.70
17307;DHT22;8771;48.048;7.682;2022-11-15T11:48:12;14.90;82.40
17307;DHT22;8771;48.048;7.682;2022-11-15T11:53:18;14.90;81.60
17307;DHT22;8771;48.048;7.682;2022-11-15T11:58:33;15.00;81.70
17307;DHT22;8771;48.048;7.682;2022-11-15T12:03:41;15.00;81.60
17307;DHT22;8771;48.048;7.682;2022-11-15T12:08:49;15.00;81.60
17307;DHT22;8771;48.048;7.682;2022-11-15T12:13:57;15.00;81.70
17307;DHT22;8771;48.048;7.682;2022-11-15T12:19:03;15.10;81.80
17307;DHT22;8771;48.048;7.682;2022-11-15T12:24:11;15.10;81.80
17307;DHT22;8771;48.048;7.682;2022-11-15T12:29:20;15.10;81.80
17307;DHT22;8771;48.048;7.682;2022-11-15T12:34:49;15.10;81.90
17307;DHT22;8771;48.048;7.682;2022-11-15T12:40:25;15.00;81.90
17307;DHT22;8771;48.048;7.682;2022-11-15T12:45:30;15.00;82.00
17307;DHT22;8771;48.048;7.682;2022-11-15T12:50:59;14.90;82.10
17307;DHT22;8771;48.048;7.682;2022-11-15T12:56:21;14.90;82.20
17307;DHT22;8771;48.048;7.682;2022-11-15T13:01:59;14.90;82.30
17307;DHT22;8771;48.048;7.682;2022-11-15T13:07:03;14.80;82.20
17307;DHT22;8771;48.048;7.682;2022-11-15T13:12:09;14.80;82.20
17307;DHT22;8771;48.048;7.682;2022-11-15T13:17:33;14.80;82.30
17307;DHT22;8771;48.048;7.682;2022-11-15T13:22:39;14.70;82.40
17307;DHT22;8771;48.048;7.682;2022-11-15T13:27:55;14.70;83.30
17307;DHT22;8771;48.048;7.682;2022-11-15T13:33:07;14.70;82.50
17307;DHT22;8771;48.048;7.682;2022-11-15T13:38:18;14.60;82.60
17307;DHT22;8771;48.048;7.682;2022-11-15T13:43:27;14.60;82.70
17307;DHT22;8771;48.048;7.682;2022-11-15T13:48:31;14.50;82.60
17307;DHT22;8771;48.048;7.682;2022-11-15T13:53:36;14.50;82.60
17307;DHT22;8771;48.048;7.682;2022-11-15T13:58:40;14.50;82.60
17307;DHT22;8771;48.048;7.682;2022-11-15T14:03:49;14.50;82.60
17307;DHT22;8771;48.048;7.682;2022-11-15T14:14:46;14.50;82.60
17307;DHT22;8771;48.048;7.682;2022-11-15T14:19:50;14.50;82.60
17307;DHT22;8771;48.048;7.682;2022-11-15T14:25:14;14.50;82.60
17307;DHT22;8771;48.048;7.682;2022-11-15T14:30:18;14.50;82.60
17307;DHT22;8771;48.048;7.682;2022-11-15T14:35:22;14.50;82.60
17307;DHT22;8771;48.048;7.682;2022-11-15T14:40:24;14.50;82.60
17307;DHT22;8771;48.048;7.682;2022-11-15T14:45:27;14.50;82.60
17307;DHT22;8771;48.048;7.682;2022-11-15T14:50:32;14.50;82.60
17307;DHT22;8771;48.048;7.682;2022-11-15T14:55:35;14.50;82.60
17307;DHT22;8771;48.048;7.682;2022-11-15T15:00:39;14.50;82.60
17307;DHT22;8771;48.048;7.682;2022-11-15T15:05:43;14.50;82.60
17307;DHT22;8771;48.048;7.682;2022-11-15T15:10:46;14.50;82.70
17307;DHT22;8771;48.048;7.682;2022-11-15T15:15:48;14.40;82.60
17307;DHT22;8771;48.048;7.682;2022-11-15T15:20:55;14.40;82.70
17307;DHT22;8771;48.048;7.682;2022-11-15T15:26:00;14.40;82.80
17307;DHT22;8771;48.048;7.682;2022-11-15T15:31:02;14.30;82.90
17307;DHT22;8771;48.048;7.682;2022-11-15T15:36:07;14.30;82.90
17307;DHT22;8771;48.048;7.682;2022-11-15T15:41:10;14.20;83.00
17307;DHT22;8771;48.048;7.682;2022-11-15T15:46:14;14.20;83.10
17307;DHT22;8771;48.048;7.682;2022-11-15T15:51:18;14.10;83.00
17307;DHT22;8771;48.048;7.682;2022-11-15T15:56:20;14.10;83.10
17307;DHT22;8771;48.048;7.682;2022-11-15T16:01:22;14.10;83.20
17307;DHT22;8771;48.048;7.682;2022-11-15T16:06:34;14.00;83.20
17307;DHT22;8771;48.048;7.682;2022-11-15T16:11:36;14.00;83.20
17307;DHT22;8771;48.048;7.682;2022-11-15T16:16:39;14.00;83.20
17307;DHT22;8771;48.048;7.682;2022-11-15T16:21:42;13.90;83.20
17307;DHT22;8771;48.048;7.682;2022-11-15T16:26:45;13.90;83.20
17307;DHT22;8771;48.048;7.682;2022-11-15T16:31:48;13.90;83.20
17307;DHT22;8771;48.048;7.682;2022-11-15T16:36:52;13.80;83.20
17307;DHT22;8771;48.048;7.682;2022-11-15T16:41:55;13.80;83.40
17307;DHT22;8771;48.048;7.682;2022-11-15T16:46:57;13.80;83.40
17307;DHT22;8771;48.048;7.682;2022-11-15T16:52:00;13.70;83.30
17307;DHT22;8771;48.048;7.682;2022-11-15T16:57:02;13.70;83.40
17307;DHT22;8771;48.048;7.682;2022-11-15T17:02:07;13.60;83.50
17307;DHT22;8771;48.048;7.682;2022-11-15T17:07:11;13.50;83.50
17307;DHT22;8771;48.048;7.682;2022-11-15T17:12:13;13.60;83.60
17307;DHT22;8771;48.048;7.682;2022-11-15T17:17:16;13.50;83.50
17307;DHT22;8771;48.048;7.682;2022-11-15T17:22:20;13.50;83.60
17307;DHT22;8771;48.048;7.682;2022-11-15T17:27:21;13.50;83.60
17307;DHT22;8771;48.048;7.682;2022-11-15T17:32:23;13.40;83.60
17307;DHT22;8771;48.048;7.682;2022-11-15T17:37:27;13.50;83.70
17307;DHT22;8771;48.048;7.682;2022-11-15T17:42:28;13.50;83.60
17307;DHT22;8771;48.048;7.682;2022-11-15T17:47:31;13.50;83.50
17307;DHT22;8771;48.048;7.682;2022-11-15T17:52:34;13.50;83.50
17307;DHT22;8771;48.048;7.682;2022-11-15T17:57:36;13.50;83.50
17307;DHT22;8771;48.048;7.682;2022-11-15T18:02:38;13.50;83.50
17307;DHT22;8771;48.048;7.682;2022-11-15T18:07:41;13.50;83.50
17307;DHT22;8771;48.048;7.682;2022-11-15T18:12:43;13.50;83.50
17307;DHT22;8771;48.048;7.682;2022-11-15T18:17:45;13.40;83.40
17307;DHT22;8771;48.048;7.682;2022-11-15T18:22:51;13.40;83.40
17307;DHT22;8771;48.048;7.682;2022-11-15T18:27:53;13.40;83.50
17307;DHT22;8771;48.048;7.682;2022-11-15T18:32:55;13.40;83.60
17307;DHT22;8771;48.048;7.682;2022-11-15T18:37:58;13.30;83.50
17307;DHT22;8771;48.048;7.682;2022-11-15T18:43:00;13.40;83.60
17307;DHT22;8771;48.048;7.682;2022-11-15T18:48:02;13.40;83.60
17307;DHT22;8771;48.048;7.682;2022-11-15T18:53:05;13.40;83.60
17307;DHT22;8771;48.048;7.682;2022-11-15T18:58:07;13.30;83.60
17307;DHT22;8771;48.048;7.682;2022-11-15T19:03:09;13.30;83.70
17307;DHT22;8771;48.048;7.682;2022-11-15T19:08:12;13.30;83.70
17307;DHT22;8771;48.048;7.682;2022-11-15T19:13:14;13.30;83.70
17307;DHT22;8771;48.048;7.682;2022-11-15T19:18:16;13.20;83.70
17307;DHT22;8771;48.048;7.682;2022-11-15T19:23:19;13.20;83.80
17307;DHT22;8771;48.048;7.682;2022-11-15T19:28:22;13.20;84.00
17307;DHT22;8771;48.048;7.682;2022-11-15T19:33:23;13.10;84.00
17307;DHT22;8771;48.048;7.682;2022-11-15T19:38:28;13.10;84.00
17307;DHT22;8771;48.048;7.682;2022-11-15T19:43:30;13.10;84.10
17307;DHT22;8771;48.048;7.682;2022-11-15T19:48:33;13.10;84.00
17307;DHT22;8771;48.048;7.682;2022-11-15T19:53:38;13.00;84.00
17307;DHT22;8771;48.048;7.682;2022-11-15T19:58:43;13.00;84.00
17307;DHT22;8771;48.048;7.682;2022-11-15T20:03:46;13.10;84.10
17307;DHT22;8771;48.048;7.682;2022-11-15T20:08:49;13.00;84.10
17307;DHT22;8771;48.048;7.682;2022-11-15T20:13:56;13.00;84.10
17307;DHT22;8771;48.048;7.682;2022-11-15T20:18:59;13.00;84.20
17307;DHT22;8771;48.048;7.682;2022-11-15T20:24:02;13.00;84.10
17307;DHT22;8771;48.048;7.682;2022-11-15T20:29:05;13.00;84.10
17307;DHT22;8771;48.048;7.682;2022-11-15T20:34:08;13.00;84.10
17307;DHT22;8771;48.048;7.682;2022-11-15T20:39:11;13.00;84.10
17307;DHT22;8771;48.048;7.682;2022-11-15T20:44:13;13.00;84.00
17307;DHT22;8771;48.048;7.682;2022-11-15T20:49:15;13.00;84.00
17307;DHT22;8771;48.048;7.682;2022-11-15T20:54:18;12.90;84.10
17307;DHT22;8771;48.048;7.682;2022-11-15T20:59:20;12.90;84.20
17307;DHT22;8771;48.048;7.682;2022-11-15T21:04:22;12.90;84.20
17307;DHT22;8771;48.048;7.682;2022-11-15T21:09:25;12.90;84.20
17307;DHT22;8771;48.048;7.682;2022-11-15T21:14:45;12.90;84.10
17307;DHT22;8771;48.048;7.682;2022-11-15T21:19:48;12.90;84.80
17307;DHT22;8771;48.048;7.682;2022-11-15T21:24:51;12.90;84.20
17307;DHT22;8771;48.048;7.682;2022-11-15T21:29:53;12.90;84.20
17307;DHT22;8771;48.048;7.682;2022-11-15T21:34:55;12.80;84.20
17307;DHT22;8771;48.048;7.682;2022-11-15T21:40:00;12.80;84.10
17307;DHT22;8771;48.048;7.682;2022-11-15T21:45:03;12.90;84.10
17307;DHT22;8771;48.048;7.682;2022-11-15T21:50:06;12.90;84.10
17307;DHT22;8771;48.048;7.682;2022-11-15T21:55:09;12.90;84.10
17307;DHT22;8771;48.048;7.682;2022-11-15T22:00:12;12.80;84.20
17307;DHT22;8771;48.048;7.682;2022-11-15T22:05:32;12.80;84.20
17307;DHT22;8771;48.048;7.682;2022-11-15T22:10:35;12.80;84.20
17307;DHT22;8771;48.048;7.682;2022-11-15T22:15:37;12.80;84.30
17307;DHT22;8771;48.048;7.682;2022-11-15T23:37:28;12.80;90.00
17307;DHT22;8771;48.048;7.682;2022-11-15T23:42:32;12.60;84.00
17307;DHT22;8771;48.048;7.682;2022-11-15T23:47:34;12.40;84.50
17307;DHT22;8771;48.048;7.682;2022-11-15T23:52:36;12.40;84.70
17307;DHT22;8771;48.048;7.682;2022-11-15T23:57:40;12.40;84.70
